Time;durP1;ratioP1;P1;durP2;ratioP2;P2;SDS_P1;SDS_P2;PMS_P1;PMS_P2;Temp;Humidity;BMP_temperature;BMP_pressure;BME280_temperature;BME280_humidity;BME280_pressure;Samples;Min_cycle;Max_cycle;Signal;HPM_P1;HPM_P2
2021/05/22 00:01:32;;;;;;;3.73;1.83;;;10.00;99.90;;;;;;5087463;28;20194;-68
2021/05/22 00:04:02;;;;;;;6.80;1.70;;;10.00;99.90;;;;;;5087619;28;20248;-69
2021/05/22 00:06:30;;;;;;;6.17;1.83;;;10.00;99.90;;;;;;5095894;28;20279;-69
2021/05/22 00:08:58;;;;;;;3.13;1.63;;;10.00;99.90;;;;;;5089121;28;20287;-69
2021/05/22 00:11:26;;;;;;;4.33;1.60;;;9.90;99.90;;;;;;5088439;28;20248;-69
2021/05/22 00:13:54;;;;;;;3.13;1.70;;;9.90;99.90;;;;;;5087579;28;20268;-69
2021/05/22 00:16:22;;;;;;;2.37;1.60;;;9.90;99.90;;;;;;5091426;28;20253;-69
2021/05/22 00:18:51;;;;;;;3.03;1.50;;;10.00;99.90;;;;;;5085384;28;20241;-68
2021/05/22 00:21:18;;;;;;;2.73;1.50;;;10.00;99.90;;;;;;5083392;28;20745;-68
2021/05/22 00:23:46;;;;;;;1.33;1.27;;;9.90;99.90;;;;;;5092689;28;20262;-68
2021/05/22 00:26:14;;;;;;;2.53;1.60;;;10.00;99.90;;;;;;5088137;28;20211;-68
2021/05/22 00:28:42;;;;;;;5.53;1.53;;;10.10;99.90;;;;;;5092774;28;20651;-69
2021/05/22 00:31:10;;;;;;;5.67;1.97;;;10.10;99.90;;;;;;5086020;28;20601;-69
2021/05/22 00:33:38;;;;;;;3.73;1.70;;;10.10;99.90;;;;;;5085623;28;20726;-69
2021/05/22 00:36:07;;;;;;;8.03;1.70;;;10.10;99.90;;;;;;5082325;28;20187;-68
2021/05/22 00:38:34;;;;;;;4.67;1.40;;;10.10;99.90;;;;;;5086188;28;20195;-69
2021/05/22 00:41:03;;;;;;;6.23;2.10;;;10.20;99.90;;;;;;5088421;28;20613;-67
2021/05/22 00:43:31;;;;;;;2.30;1.60;;;10.20;99.90;;;;;;5108725;27;20199;-68
2021/05/22 00:45:58;;;;;;;4.93;1.70;;;10.20;99.90;;;;;;5090555;28;20298;-67
2021/05/22 00:48:27;;;;;;;5.03;1.57;;;10.30;99.90;;;;;;5088513;28;20202;-66
2021/05/22 00:50:54;;;;;;;2.50;1.50;;;10.30;99.90;;;;;;5110899;27;20195;-69
2021/05/22 00:53:23;;;;;;;4.73;1.60;;;10.30;99.90;;;;;;5082092;28;20188;-68
2021/05/22 00:55:51;;;;;;;7.97;1.70;;;10.20;99.90;;;;;;5090349;28;20187;-67
2021/05/22 00:58:19;;;;;;;3.87;1.90;;;10.20;99.90;;;;;;5086602;28;20694;-69
2021/05/22 01:00:48;;;;;;;7.83;1.87;;;10.30;99.90;;;;;;5086243;28;20234;-68
2021/05/22 01:03:18;;;;;;;2.77;1.70;;;10.30;99.90;;;;;;5088404;28;20191;-68
2021/05/22 01:05:47;;;;;;;2.87;1.90;;;10.30;99.90;;;;;;5095966;27;20249;-68
2021/05/22 01:08:17;;;;;;;9.00;2.00;;;10.30;99.90;;;;;;5088596;28;20223;-69
2021/05/22 01:10:53;;;;;;;8.13;2.03;;;10.20;99.90;;;;;;5087477;28;20229;-68
2021/05/22 01:13:21;;;;;;;2.67;1.53;;;10.20;99.90;;;;;;5094154;28;20227;-67
2021/05/22 01:15:53;;;;;;;8.97;1.80;;;10.20;99.90;;;;;;5077356;28;20275;-68
2021/05/22 01:18:22;;;;;;;5.53;1.80;;;10.20;99.90;;;;;;5085716;28;20222;-69
2021/05/22 01:20:55;;;;;;;3.87;1.73;;;10.20;99.90;;;;;;5098691;28;20253;-69
2021/05/22 01:23:31;;;;;;;5.00;1.60;;;10.20;99.90;;;;;;5092660;28;20360;-68
2021/05/22 01:26:01;;;;;;;5.40;1.60;;;10.30;99.90;;;;;;5073532;28;20744;-69
2021/05/22 01:28:29;;;;;;;1.73;1.50;;;10.20;99.90;;;;;;5080611;28;20237;-68
2021/05/22 01:30:57;;;;;;;9.77;1.80;;;10.10;99.90;;;;;;5072944;28;20249;-69
2021/05/22 01:33:25;;;;;;;5.70;1.60;;;10.00;99.90;;;;;;5081883;28;20679;-67
2021/05/22 01:35:53;;;;;;;4.50;1.90;;;9.90;99.90;;;;;;5082768;28;20187;-68
2021/05/22 01:38:21;;;;;;;4.50;1.70;;;9.90;99.90;;;;;;5081110;28;20221;-68
2021/05/22 01:40:50;;;;;;;3.47;1.50;;;9.90;99.90;;;;;;5084189;28;20206;-69
2021/05/22 01:43:20;;;;;;;4.30;1.67;;;9.90;99.90;;;;;;5088601;28;20191;-69
2021/05/22 01:45:50;;;;;;;5.47;1.90;;;9.90;99.90;;;;;;5092446;28;20682;-67
2021/05/22 01:48:21;;;;;;;8.77;1.90;;;9.80;99.90;;;;;;5097409;28;20225;-67
2021/05/22 01:50:55;;;;;;;2.73;1.43;;;9.80;99.90;;;;;;5081282;28;20260;-68
2021/05/22 01:53:23;;;;;;;3.03;1.60;;;9.80;99.90;;;;;;5088734;28;20671;-69
2021/05/22 01:55:51;;;;;;;4.20;1.63;;;9.80;99.90;;;;;;5091421;28;20274;-68
2021/05/22 01:58:22;;;;;;;2.87;1.73;;;9.80;99.90;;;;;;5088429;28;20191;-68
2021/05/22 02:00:50;;;;;;;4.57;1.53;;;9.90;99.90;;;;;;5090724;28;20796;-68
2021/05/22 02:03:26;;;;;;;5.83;1.63;;;9.90;99.90;;;;;;5083152;28;20198;-69
2021/05/22 02:05:57;;;;;;;7.47;1.80;;;10.00;99.90;;;;;;5088045;28;20264;-69
2021/05/22 02:08:25;;;;;;;5.40;1.97;;;10.00;99.90;;;;;;5088253;28;20293;-70
2021/05/22 02:10:54;;;;;;;5.40;1.60;;;10.00;99.90;;;;;;5090544;28;20282;-68
2021/05/22 02:13:23;;;;;;;7.33;2.27;;;10.00;99.90;;;;;;5088663;28;20195;-70
2021/05/22 02:15:55;;;;;;;3.70;1.80;;;10.00;99.90;;;;;;5091785;28;20196;-69
2021/05/22 02:18:24;;;;;;;4.67;2.07;;;10.00;99.90;;;;;;5100866;28;20281;-68
2021/05/22 02:20:55;;;;;;;7.23;1.70;;;10.00;99.90;;;;;;5098057;28;20248;-68
2021/05/22 02:23:23;;;;;;;3.77;1.73;;;10.00;99.90;;;;;;5088940;28;20247;-69
2021/05/22 02:25:54;;;;;;;5.43;2.20;;;10.00;99.90;;;;;;5086710;28;20299;-69
2021/05/22 02:28:27;;;;;;;6.77;2.20;;;10.00;99.90;;;;;;5092495;28;20219;-68
2021/05/22 02:30:56;;;;;;;4.30;1.70;;;9.90;99.90;;;;;;5085583;28;20190;-69
2021/05/22 02:33:24;;;;;;;3.83;1.83;;;10.00;99.90;;;;;;5087826;28;20944;-68
2021/05/22 02:35:54;;;;;;;6.73;1.70;;;10.00;99.90;;;;;;5095577;28;20194;-69
2021/05/22 02:38:26;;;;;;;6.17;1.70;;;10.00;99.90;;;;;;5082107;28;20195;-69
2021/05/22 02:40:58;;;;;;;10.07;1.90;;;10.00;99.90;;;;;;5083271;28;20196;-68
2021/05/22 02:43:27;;;;;;;4.50;2.10;;;10.10;99.90;;;;;;5093433;28;20196;-69
2021/05/22 02:45:58;;;;;;;8.30;2.33;;;10.10;99.90;;;;;;5085775;28;20211;-66
2021/05/22 02:48:28;;;;;;;7.37;1.90;;;10.10;99.90;;;;;;5089903;28;20611;-68
2021/05/22 02:50:59;;;;;;;9.30;2.10;;;10.20;99.90;;;;;;5090026;28;20191;-68
2021/05/22 02:53:29;;;;;;;4.03;1.87;;;10.20;99.90;;;;;;5090154;28;20214;-69
2021/05/22 02:55:57;;;;;;;8.20;2.43;;;10.20;99.90;;;;;;5088537;28;20221;-66
2021/05/22 02:58:26;;;;;;;11.40;2.70;;;10.20;99.90;;;;;;5081258;28;20306;-71
2021/05/22 03:00:54;;;;;;;7.77;2.30;;;10.30;99.90;;;;;;5089202;28;20190;-69
2021/05/22 03:03:22;;;;;;;10.03;2.20;;;10.30;99.90;;;;;;5079428;28;20274;-69
2021/05/22 03:05:50;;;;;;;3.63;2.23;;;10.30;99.90;;;;;;5087668;28;20200;-68
2021/05/22 03:08:18;;;;;;;5.37;2.10;;;10.30;99.90;;;;;;5081484;28;20183;-68
2021/05/22 03:10:47;;;;;;;10.57;2.30;;;10.30;99.90;;;;;;5082890;28;20223;-68
2021/05/22 03:13:15;;;;;;;11.97;2.40;;;10.30;99.90;;;;;;5081509;28;20187;-69
2021/05/22 03:15:44;;;;;;;6.17;2.17;;;10.30;99.90;;;;;;5080162;28;20219;-68
2021/05/22 03:18:11;;;;;;;7.00;2.20;;;10.30;99.90;;;;;;5095826;28;20218;-69
2021/05/22 03:20:39;;;;;;;8.47;2.80;;;10.30;99.90;;;;;;5087145;28;20200;-68
2021/05/22 03:23:07;;;;;;;8.23;2.53;;;10.30;99.90;;;;;;5086478;28;20266;-69
2021/05/22 03:25:35;;;;;;;8.50;1.80;;;10.30;99.90;;;;;;5088556;28;20276;-67
2021/05/22 03:28:03;;;;;;;6.63;1.97;;;10.30;99.90;;;;;;5080289;28;20294;-68
2021/05/22 03:30:31;;;;;;;13.43;2.57;;;10.30;99.90;;;;;;5092245;28;20200;-67
2021/05/22 03:33:00;;;;;;;5.37;1.83;;;10.30;99.90;;;;;;5090261;28;20176;-68
2021/05/22 03:35:28;;;;;;;7.73;2.10;;;10.40;99.90;;;;;;5087281;28;20690;-69
2021/05/22 03:37:56;;;;;;;12.80;2.40;;;10.40;99.90;;;;;;5087902;28;20207;-67
2021/05/22 03:40:24;;;;;;;7.47;2.73;;;10.40;99.90;;;;;;5094967;28;20191;-68
2021/05/22 03:42:52;;;;;;;14.60;3.10;;;10.40;99.90;;;;;;5092839;28;20821;-68
2021/05/22 03:45:20;;;;;;;8.10;2.23;;;10.30;99.90;;;;;;5088953;28;20257;-68
2021/05/22 03:47:48;;;;;;;7.23;2.23;;;10.30;99.90;;;;;;5087645;28;20191;-68
2021/05/22 03:50:17;;;;;;;10.43;2.47;;;10.30;99.90;;;;;;5088610;28;20225;-69
2021/05/22 03:52:45;;;;;;;12.53;2.70;;;10.20;99.90;;;;;;5081403;28;20277;-68
2021/05/22 03:55:14;;;;;;;7.67;2.17;;;10.30;99.90;;;;;;5085944;28;20252;-68
2021/05/22 03:57:42;;;;;;;9.47;2.00;;;10.20;99.90;;;;;;5087955;28;20591;-69
2021/05/22 04:00:11;;;;;;;10.27;2.57;;;10.20;99.90;;;;;;5087937;28;20196;-67
2021/05/22 04:02:39;;;;;;;7.67;2.27;;;10.20;99.90;;;;;;5087581;28;20195;-68
2021/05/22 04:05:08;;;;;;;8.93;2.57;;;10.20;99.90;;;;;;5089788;28;20440;-67
2021/05/22 04:07:37;;;;;;;10.10;3.00;;;10.20;99.90;;;;;;5088435;28;20276;-67
2021/05/22 04:10:06;;;;;;;6.17;2.40;;;10.20;99.90;;;;;;5082892;28;20285;-67
2021/05/22 04:12:35;;;;;;;12.30;2.60;;;10.10;99.90;;;;;;5070392;28;20253;-68
2021/05/22 04:15:03;;;;;;;12.80;2.83;;;10.00;99.90;;;;;;5088831;28;20190;-68
2021/05/22 04:17:31;;;;;;;5.13;2.13;;;10.00;99.90;;;;;;5084742;28;20671;-68
2021/05/22 04:19:59;;;;;;;9.40;2.77;;;9.90;99.90;;;;;;5078304;28;20265;-67
2021/05/22 04:22:27;;;;;;;9.40;2.10;;;9.90;99.90;;;;;;5079684;28;20259;-67
2021/05/22 04:24:59;;;;;;;9.83;2.93;;;9.90;99.90;;;;;;5081912;28;20222;-69
2021/05/22 04:27:27;;;;;;;9.47;2.70;;;9.90;99.90;;;;;;5088968;28;20305;-68
2021/05/22 04:29:55;;;;;;;8.23;2.60;;;9.90;99.90;;;;;;5095857;28;20240;-68
2021/05/22 04:32:23;;;;;;;8.43;2.43;;;9.90;99.90;;;;;;5089565;28;20588;-67
2021/05/22 04:34:51;;;;;;;9.97;2.50;;;9.90;99.90;;;;;;5082557;28;20304;-68
2021/05/22 04:37:19;;;;;;;5.73;2.40;;;9.90;99.90;;;;;;5089326;28;20226;-68
2021/05/22 04:39:47;;;;;;;6.53;2.27;;;9.90;99.90;;;;;;5075289;28;20191;-67
2021/05/22 04:42:16;;;;;;;4.80;2.33;;;9.90;99.90;;;;;;5083064;28;20226;-68
2021/05/22 04:44:44;;;;;;;6.57;2.47;;;9.90;99.90;;;;;;5087556;28;20256;-67
2021/05/22 04:47:12;;;;;;;7.60;2.47;;;10.00;99.90;;;;;;5089755;28;20202;-67
2021/05/22 04:49:39;;;;;;;11.43;2.23;;;10.00;99.90;;;;;;5085128;28;20600;-68
2021/05/22 04:52:07;;;;;;;9.07;2.70;;;10.00;99.90;;;;;;5079510;28;20226;-66
2021/05/22 04:54:35;;;;;;;7.40;2.47;;;10.10;99.90;;;;;;5088400;28;20734;-68
2021/05/22 04:57:03;;;;;;;7.20;2.77;;;10.10;99.90;;;;;;5088446;28;20195;-68
2021/05/22 04:59:32;;;;;;;8.90;2.30;;;10.10;99.90;;;;;;5097295;28;20278;-68
2021/05/22 05:02:00;;;;;;;7.87;2.13;;;10.10;99.90;;;;;;5082709;28;20214;-69
2021/05/22 05:04:28;;;;;;;7.63;2.67;;;10.10;99.90;;;;;;5084019;28;20295;-69
2021/05/22 05:06:56;;;;;;;6.20;2.67;;;10.10;99.90;;;;;;5086050;28;20811;-68
2021/05/22 05:09:24;;;;;;;4.47;2.20;;;10.10;99.90;;;;;;5082480;28;20290;-68
2021/05/22 05:11:52;;;;;;;4.63;2.20;;;10.10;99.90;;;;;;5086235;28;20195;-69
2021/05/22 05:14:19;;;;;;;4.67;2.30;;;10.20;99.90;;;;;;5092376;28;20207;-69
2021/05/22 05:16:48;;;;;;;9.30;2.40;;;10.20;99.90;;;;;;5086916;28;20252;-67
2021/05/22 05:19:16;;;;;;;6.60;2.57;;;10.10;99.90;;;;;;5084318;28;20205;-69
2021/05/22 05:21:44;;;;;;;6.30;2.30;;;10.10;99.90;;;;;;5080333;28;20199;-68
2021/05/22 05:24:12;;;;;;;6.97;2.57;;;10.00;99.90;;;;;;5070088;28;20273;-69
2021/05/22 05:26:39;;;;;;;8.20;2.57;;;10.00;99.90;;;;;;5091239;28;20268;-68
2021/05/22 05:29:07;;;;;;;6.20;2.40;;;9.90;99.90;;;;;;5081433;28;20625;-67
2021/05/22 05:31:35;;;;;;;10.77;3.40;;;9.90;99.90;;;;;;5085205;28;20223;-69
2021/05/22 05:34:04;;;;;;;10.17;3.17;;;9.90;99.90;;;;;;5082934;28;20229;-68
2021/05/22 05:36:32;;;;;;;8.93;3.20;;;9.80;99.90;;;;;;5085214;28;20247;-68
2021/05/22 05:39:00;;;;;;;11.30;3.20;;;9.70;99.90;;;;;;5085489;28;20221;-68
2021/05/22 05:41:28;;;;;;;6.57;2.80;;;9.70;99.90;;;;;;5089858;28;20738;-68
2021/05/22 05:43:56;;;;;;;6.27;2.83;;;9.70;99.90;;;;;;5078474;28;20192;-64
2021/05/22 05:46:24;;;;;;;7.43;2.63;;;9.70;99.90;;;;;;5084594;28;20928;-68
2021/05/22 05:48:54;;;;;;;9.03;3.13;;;9.60;99.90;;;;;;5089121;28;20726;-68
2021/05/22 05:51:22;;;;;;;9.63;3.07;;;9.60;99.90;;;;;;5095811;28;20208;-69
2021/05/22 05:53:50;;;;;;;4.70;2.73;;;9.60;99.90;;;;;;5086817;28;20222;-69
2021/05/22 05:56:18;;;;;;;12.37;2.83;;;9.60;99.90;;;;;;5087738;28;20225;-69
2021/05/22 05:58:46;;;;;;;8.37;2.53;;;9.60;99.90;;;;;;5088860;28;20333;-68
2021/05/22 06:01:14;;;;;;;9.63;2.93;;;9.60;99.90;;;;;;5082422;28;20660;-68
2021/05/22 06:03:43;;;;;;;8.40;3.13;;;9.60;99.90;;;;;;5076495;28;20219;-68
2021/05/22 06:06:10;;;;;;;9.97;2.97;;;9.60;99.90;;;;;;5078628;28;20559;-68
2021/05/22 06:08:39;;;;;;;9.37;3.33;;;9.60;99.90;;;;;;5088262;28;20187;-68
2021/05/22 06:11:10;;;;;;;8.87;3.20;;;9.50;99.90;;;;;;5089492;28;20203;-68
2021/05/22 06:13:38;;;;;;;7.13;3.17;;;9.50;99.90;;;;;;5087655;28;20215;-69
2021/05/22 06:16:16;;;;;;;8.37;3.97;;;9.50;99.90;;;;;;5083364;28;20281;-68
2021/05/22 06:18:44;;;;;;;10.00;3.40;;;9.50;99.90;;;;;;5077992;28;20708;-68
2021/05/22 06:21:12;;;;;;;11.50;3.93;;;9.50;99.90;;;;;;5084278;28;20735;-68
2021/05/22 06:23:40;;;;;;;8.47;3.00;;;9.60;99.90;;;;;;5089272;28;20280;-68
2021/05/22 06:26:09;;;;;;;6.63;2.93;;;9.60;99.90;;;;;;5081988;28;20666;-68
2021/05/22 06:28:37;;;;;;;14.77;3.37;;;9.60;99.90;;;;;;5079121;28;20246;-68
2021/05/22 06:31:05;;;;;;;4.53;3.13;;;9.60;99.90;;;;;;5084122;28;20217;-68
2021/05/22 06:33:33;;;;;;;7.87;3.30;;;9.60;99.90;;;;;;5087587;28;20227;-68
2021/05/22 06:36:01;;;;;;;10.60;3.63;;;9.50;99.90;;;;;;5070018;28;20810;-68
2021/05/22 06:38:29;;;;;;;9.17;3.50;;;9.50;99.90;;;;;;5090232;28;20187;-67
2021/05/22 06:40:58;;;;;;;8.93;3.87;;;9.60;99.90;;;;;;5091022;28;20199;-68
2021/05/22 06:43:26;;;;;;;11.50;4.00;;;9.60;99.90;;;;;;5093379;28;20206;-68
2021/05/22 06:45:59;;;;;;;11.80;4.70;;;9.60;99.90;;;;;;5091474;28;20219;-68
2021/05/22 06:48:27;;;;;;;8.17;4.00;;;9.60;99.90;;;;;;5095390;28;20242;-68
2021/05/22 06:50:56;;;;;;;10.87;3.70;;;9.70;99.90;;;;;;5085909;28;20184;-68
2021/05/22 06:53:23;;;;;;;6.70;3.70;;;9.70;99.90;;;;;;5077175;28;20203;-68
2021/05/22 06:55:51;;;;;;;7.40;3.57;;;9.60;99.90;;;;;;5075903;28;20287;-67
2021/05/22 06:58:20;;;;;;;8.00;4.00;;;9.60;99.90;;;;;;5082771;28;20545;-68
2021/05/22 07:00:48;;;;;;;7.53;3.50;;;9.70;99.90;;;;;;5081450;28;20732;-68
2021/05/22 07:03:16;;;;;;;9.07;4.00;;;9.70;99.90;;;;;;5091342;28;20195;-69
2021/05/22 07:05:48;;;;;;;14.53;3.50;;;9.70;99.90;;;;;;5087004;28;20260;-68
2021/05/22 07:08:16;;;;;;;10.53;3.50;;;9.70;99.90;;;;;;5086660;28;20223;-68
2021/05/22 07:10:45;;;;;;;7.47;3.77;;;9.70;99.90;;;;;;5084588;28;20191;-68
2021/05/22 07:13:12;;;;;;;13.97;4.17;;;9.80;99.90;;;;;;5080295;28;20192;-68
2021/05/22 07:15:41;;;;;;;11.40;4.23;;;9.80;99.90;;;;;;5091602;28;20188;-68
2021/05/22 07:18:09;;;;;;;10.20;4.00;;;9.80;99.90;;;;;;5087610;28;20226;-68
2021/05/22 07:20:37;;;;;;;7.27;4.17;;;9.90;99.90;;;;;;5090287;28;20202;-68
2021/05/22 07:23:04;;;;;;;11.63;3.90;;;9.90;99.90;;;;;;5087229;28;20288;-68
2021/05/22 07:25:32;;;;;;;8.93;4.33;;;9.90;99.90;;;;;;5081567;28;20549;-68
2021/05/22 07:28:00;;;;;;;7.87;4.10;;;9.90;99.90;;;;;;5089212;28;20203;-67
2021/05/22 07:30:28;;;;;;;7.73;4.23;;;9.90;99.90;;;;;;5087444;28;20238;-69
2021/05/22 07:32:57;;;;;;;9.57;4.30;;;9.90;99.90;;;;;;5085998;28;20230;-68
2021/05/22 07:35:24;;;;;;;6.83;4.07;;;9.90;99.90;;;;;;5090068;28;20198;-68
2021/05/22 07:37:52;;;;;;;8.33;4.17;;;9.90;99.90;;;;;;5088213;28;20179;-67
2021/05/22 07:40:20;;;;;;;7.40;4.43;;;9.90;99.90;;;;;;5088523;28;20221;-68
2021/05/22 07:42:48;;;;;;;8.57;4.40;;;9.90;99.90;;;;;;5087460;28;20233;-68
2021/05/22 07:45:18;;;;;;;8.40;4.43;;;9.90;99.90;;;;;;5084853;28;20180;-68
2021/05/22 07:47:46;;;;;;;8.50;5.20;;;10.00;99.90;;;;;;5083195;28;20214;-68
2021/05/22 07:50:15;;;;;;;6.77;4.30;;;10.10;99.90;;;;;;5079493;28;20207;-69
2021/05/22 07:52:43;;;;;;;9.20;4.63;;;10.20;99.90;;;;;;5081694;28;20200;-68
2021/05/22 07:55:12;;;;;;;10.10;4.30;;;10.20;99.90;;;;;;5085401;28;20192;-68
2021/05/22 07:57:40;;;;;;;9.40;4.20;;;10.20;99.90;;;;;;5089185;28;20198;-68
2021/05/22 08:00:10;;;;;;;7.60;4.03;;;10.10;99.90;;;;;;5082142;28;20631;-68
2021/05/22 08:02:38;;;;;;;6.57;4.03;;;10.20;99.90;;;;;;5087003;28;20230;-68
2021/05/22 08:05:06;;;;;;;8.97;4.27;;;10.20;99.90;;;;;;5084482;28;20271;-68
2021/05/22 08:07:35;;;;;;;4.87;3.73;;;10.20;99.90;;;;;;5081002;28;20691;-70
2021/05/22 08:10:05;;;;;;;6.53;3.50;;;10.20;99.90;;;;;;5084580;28;20198;-68
2021/05/22 08:12:33;;;;;;;5.50;4.27;;;10.10;99.90;;;;;;5088413;28;20210;-68
2021/05/22 08:15:01;;;;;;;4.57;3.83;;;10.20;99.90;;;;;;5075597;28;20184;-67
2021/05/22 08:17:29;;;;;;;4.57;3.67;;;10.10;99.90;;;;;;5084469;28;20192;-68
2021/05/22 08:19:57;;;;;;;4.17;3.60;;;10.20;99.90;;;;;;5079531;28;20222;-67
2021/05/22 08:22:25;;;;;;;11.60;4.20;;;10.30;99.90;;;;;;5069040;28;20323;-67
2021/05/22 08:24:54;;;;;;;13.20;4.57;;;10.40;99.90;;;;;;5084511;28;20196;-67
2021/05/22 08:27:22;;;;;;;10.83;3.60;;;10.30;99.90;;;;;;5086115;28;20782;-69
2021/05/22 08:29:55;;;;;;;6.00;3.73;;;10.30;99.90;;;;;;5088165;28;20187;-68
2021/05/22 08:32:24;;;;;;;6.03;3.20;;;10.30;99.90;;;;;;5084925;28;20181;-66
2021/05/22 08:34:53;;;;;;;7.60;3.80;;;10.30;99.90;;;;;;5080861;28;20278;-67
2021/05/22 08:37:22;;;;;;;5.00;3.53;;;10.40;99.90;;;;;;5079776;28;20243;-68
2021/05/22 08:39:50;;;;;;;8.23;3.40;;;10.50;99.90;;;;;;5093739;28;20191;-68
2021/05/22 08:42:22;;;;;;;9.23;3.77;;;10.70;99.90;;;;;;5089352;28;20280;-68
2021/05/22 08:44:51;;;;;;;4.27;3.00;;;10.80;99.90;;;;;;5090272;28;20206;-68
2021/05/22 08:47:19;;;;;;;10.03;3.40;;;10.80;99.90;;;;;;5087075;28;20254;-68
2021/05/22 08:49:48;;;;;;;6.97;3.27;;;10.80;99.90;;;;;;5082257;28;20717;-67
2021/05/22 08:52:17;;;;;;;4.77;3.13;;;10.90;99.90;;;;;;5094402;28;20214;-68
2021/05/22 08:54:46;;;;;;;6.37;3.13;;;10.90;99.90;;;;;;5082913;28;20237;-68
2021/05/22 08:57:14;;;;;;;8.57;3.40;;;11.00;99.90;;;;;;5092947;28;20844;-68
2021/05/22 08:59:47;;;;;;;8.10;3.00;;;11.00;99.90;;;;;;5096834;28;20203;-68
2021/05/22 09:02:18;;;;;;;7.07;2.97;;;11.00;99.90;;;;;;5087002;28;20218;-68
2021/05/22 09:05:21;;;;;;;5.63;2.80;;;11.00;99.90;;;;;;5088915;28;20187;-68
2021/05/22 09:07:50;;;;;;;6.83;2.90;;;11.10;99.90;;;;;;5011779;28;20211;-68
2021/05/22 09:10:21;;;;;;;7.77;2.90;;;11.20;99.90;;;;;;5067803;28;20273;-68
2021/05/22 09:12:51;;;;;;;4.40;2.90;;;11.30;99.90;;;;;;5081897;28;20245;-68
2021/05/22 09:15:22;;;;;;;7.37;2.73;;;11.20;99.90;;;;;;5079999;28;20715;-68
2021/05/22 09:17:52;;;;;;;3.50;3.00;;;11.10;99.90;;;;;;5076097;28;20191;-68
2021/05/22 09:20:26;;;;;;;4.40;3.03;;;11.00;99.90;;;;;;5083949;28;20282;-68
2021/05/22 09:22:59;;;;;;;9.03;3.00;;;11.10;99.90;;;;;;5077554;28;20228;-68
2021/05/22 09:25:28;;;;;;;4.10;2.67;;;11.00;99.90;;;;;;5083309;28;20223;-68
2021/05/22 09:27:57;;;;;;;5.17;2.80;;;11.00;99.90;;;;;;5074264;28;20262;-69
2021/05/22 09:30:28;;;;;;;3.60;2.70;;;11.00;99.90;;;;;;5080014;28;20655;-68
2021/05/22 09:32:56;;;;;;;4.10;2.80;;;11.00;99.90;;;;;;5073936;28;20291;-67
2021/05/22 09:35:25;;;;;;;6.73;2.97;;;11.00;99.90;;;;;;5079000;28;20232;-68
2021/05/22 09:37:55;;;;;;;7.90;3.63;;;11.10;99.90;;;;;;5081126;28;20245;-68
2021/05/22 09:40:25;;;;;;;7.53;3.00;;;11.20;99.90;;;;;;5081687;28;20249;-67
2021/05/22 09:42:54;;;;;;;6.30;3.43;;;11.20;99.90;;;;;;5082159;28;20231;-68
2021/05/22 09:45:24;;;;;;;4.23;3.00;;;11.20;99.90;;;;;;5083594;28;20224;-68
2021/05/22 09:47:54;;;;;;;5.73;3.00;;;11.20;99.90;;;;;;5075195;28;20243;-68
2021/05/22 09:50:36;;;;;;;7.30;3.30;;;11.20;99.90;;;;;;5078631;28;20706;-68
2021/05/22 09:53:26;;;;;;;5.50;2.70;;;11.30;99.90;;;;;;5081038;28;20184;-68
2021/05/22 09:56:16;;;;;;;5.80;2.80;;;11.20;99.90;;;;;;5086440;28;20726;-68
2021/05/22 09:58:46;;;;;;;5.47;3.17;;;11.20;99.90;;;;;;5073856;28;20192;-68
2021/05/22 10:01:16;;;;;;;6.53;3.30;;;11.20;99.90;;;;;;5072101;28;20200;-68
2021/05/22 10:03:45;;;;;;;9.10;3.20;;;11.20;99.90;;;;;;5076386;28;20191;-67
2021/05/22 10:06:13;;;;;;;4.60;3.03;;;11.20;99.90;;;;;;5077162;28;20294;-68
2021/05/22 10:08:41;;;;;;;5.90;3.30;;;11.20;99.90;;;;;;5077788;28;20215;-68
2021/05/22 10:11:09;;;;;;;8.10;3.10;;;11.20;99.90;;;;;;5081486;28;20196;-68
2021/05/22 10:13:41;;;;;;;3.20;3.00;;;11.30;99.90;;;;;;5083470;28;20252;-68
2021/05/22 10:16:09;;;;;;;6.87;2.90;;;11.30;99.90;;;;;;5079646;28;20225;-68
2021/05/22 10:18:37;;;;;;;6.20;3.20;;;11.30;99.90;;;;;;5073836;28;20222;-67
2021/05/22 10:21:07;;;;;;;7.67;3.37;;;11.30;99.90;;;;;;5075912;28;20195;-68
2021/05/22 10:23:35;;;;;;;3.93;2.80;;;11.30;99.90;;;;;;5079690;28;20230;-67
2021/05/22 10:26:03;;;;;;;7.93;2.83;;;11.40;99.90;;;;;;5078022;28;20214;-68
2021/05/22 10:28:31;;;;;;;4.73;2.73;;;11.40;99.90;;;;;;5086147;28;20215;-68
2021/05/22 10:30:59;;;;;;;4.10;2.70;;;11.40;99.90;;;;;;5084050;28;20306;-68
2021/05/22 10:33:35;;;;;;;4.97;2.67;;;11.40;99.90;;;;;;5083063;28;20211;-67
2021/05/22 10:36:03;;;;;;;3.20;2.63;;;11.40;99.90;;;;;;5081288;28;20187;-68
2021/05/22 10:38:42;;;;;;;3.93;2.93;;;11.40;99.90;;;;;;5078740;28;20195;-67
2021/05/22 10:41:12;;;;;;;5.10;3.13;;;11.40;99.90;;;;;;5077837;28;20245;-68
2021/05/22 10:43:51;;;;;;;6.50;3.23;;;11.40;99.90;;;;;;5084679;28;20191;-67
2021/05/22 10:46:21;;;;;;;3.63;2.90;;;11.40;99.90;;;;;;5082058;28;20257;-68
2021/05/22 10:48:59;;;;;;;6.40;2.50;;;11.40;99.90;;;;;;5088816;28;20238;-67
2021/05/22 10:51:33;;;;;;;4.50;2.80;;;11.30;99.90;;;;;;5077109;28;20930;-67
2021/05/22 10:54:05;;;;;;;4.23;2.97;;;11.40;99.90;;;;;;5080125;28;20196;-67
2021/05/22 10:56:33;;;;;;;4.97;3.03;;;11.50;99.90;;;;;;5084642;28;20196;-68
2021/05/22 10:59:17;;;;;;;4.10;2.80;;;11.60;99.90;;;;;;5079553;28;20192;-68
2021/05/22 11:01:47;;;;;;;6.43;2.70;;;11.70;99.90;;;;;;5076879;28;20196;-68
2021/05/22 11:04:29;;;;;;;4.03;2.70;;;11.60;99.90;;;;;;5078903;28;20200;-68
2021/05/22 11:06:59;;;;;;;2.67;2.47;;;11.50;99.90;;;;;;5086416;28;20219;-68
2021/05/22 11:09:54;;;;;;;6.33;3.00;;;11.50;99.90;;;;;;5082826;28;20682;-68
2021/05/22 11:12:50;;;;;;;2.70;2.50;;;11.70;99.90;;;;;;5079802;28;20654;-68
2021/05/22 11:15:46;;;;;;;4.10;2.80;;;11.70;99.90;;;;;;5082868;28;20551;-67
2021/05/22 11:18:17;;;;;;;2.97;2.67;;;11.70;99.90;;;;;;5080873;28;20184;-67
2021/05/22 11:21:14;;;;;;;3.27;2.70;;;11.60;99.90;;;;;;5076564;28;20689;-67
2021/05/22 11:24:10;;;;;;;2.73;2.40;;;11.50;99.90;;;;;;5080170;28;20227;-67
2021/05/22 11:27:01;;;;;;;2.50;2.40;;;11.40;99.90;;;;;;5076264;28;20793;-68
2021/05/22 11:29:57;;;;;;;5.30;2.63;;;11.20;99.90;;;;;;5085347;28;20320;-66
2021/05/22 11:32:58;;;;;;;4.93;2.90;;;11.20;99.90;;;;;;5081514;28;20731;-66
2021/05/22 11:35:46;;;;;;;2.27;1.97;;;11.10;99.90;;;;;;5077204;28;20724;-66
2021/05/22 11:38:37;;;;;;;2.80;2.43;;;10.90;99.90;;;;;;5082018;28;20190;-66
2021/05/22 11:41:11;;;;;;;1.93;1.87;;;10.80;99.90;;;;;;5080475;28;20206;-66
2021/05/22 11:43:45;;;;;;;1.60;1.60;;;10.80;99.90;;;;;;5081835;28;20192;-67
2021/05/22 11:46:18;;;;;;;2.07;1.93;;;10.80;99.90;;;;;;5079607;28;20179;-66
2021/05/22 11:48:49;;;;;;;1.80;1.70;;;10.80;99.90;;;;;;5092674;28;20215;-66
2021/05/22 11:51:23;;;;;;;2.10;2.00;;;10.70;99.90;;;;;;5080926;28;20286;-66
2021/05/22 11:53:55;;;;;;;3.00;2.80;;;10.60;99.90;;;;;;5078590;28;20207;-66
2021/05/22 11:56:25;;;;;;;3.00;2.13;;;10.50;99.90;;;;;;5083705;28;20888;-66
2021/05/22 11:58:55;;;;;;;3.20;2.00;;;10.60;99.90;;;;;;5087456;28;20196;-66
2021/05/22 12:01:25;;;;;;;2.00;2.00;;;10.50;99.90;;;;;;5078827;28;20195;-66
2021/05/22 12:03:55;;;;;;;2.20;2.10;;;10.40;99.90;;;;;;5082258;28;20187;-66
2021/05/22 12:06:29;;;;;;;2.40;2.30;;;10.40;99.90;;;;;;5080446;28;20248;-66
2021/05/22 12:09:13;;;;;;;2.37;2.27;;;10.40;99.90;;;;;;5074107;28;20770;-66
2021/05/22 12:11:45;;;;;;;4.13;2.80;;;10.40;99.90;;;;;;5074758;28;20223;-65
2021/05/22 12:14:13;;;;;;;4.60;3.27;;;10.40;99.90;;;;;;5076556;28;20753;-66
2021/05/22 12:16:41;;;;;;;3.57;3.37;;;10.50;99.90;;;;;;5080141;28;20792;-66
2021/05/22 12:19:14;;;;;;;3.43;3.20;;;10.60;99.90;;;;;;5072984;28;20196;-66
2021/05/22 12:21:51;;;;;;;3.57;3.37;;;10.70;99.90;;;;;;5084449;28;20207;-66
2021/05/22 12:24:22;;;;;;;3.60;3.40;;;10.90;99.90;;;;;;5076191;28;20947;-67
2021/05/22 12:26:52;;;;;;;4.30;4.00;;;11.10;99.90;;;;;;5082913;28;20654;-66
2021/05/22 12:29:24;;;;;;;4.17;3.97;;;11.20;99.90;;;;;;5074506;28;20597;-66
2021/05/22 12:31:55;;;;;;;6.20;5.17;;;11.10;99.90;;;;;;5076311;28;20199;-66
2021/05/22 12:34:25;;;;;;;4.27;3.90;;;11.30;99.90;;;;;;5083099;28;20202;-66
2021/05/22 12:36:58;;;;;;;4.23;3.83;;;11.30;99.90;;;;;;5081978;28;20187;-66
2021/05/22 12:39:31;;;;;;;3.50;3.40;;;11.20;99.90;;;;;;5085314;28;20317;-67
2021/05/22 12:41:59;;;;;;;4.57;4.27;;;11.20;99.90;;;;;;5077901;28;20309;-66
2021/05/22 12:44:28;;;;;;;4.57;4.27;;;11.20;99.90;;;;;;5078079;28;20268;-67
2021/05/22 12:46:58;;;;;;;5.00;4.70;;;11.30;99.90;;;;;;5074637;28;20808;-67
2021/05/22 12:49:55;;;;;;;4.90;4.60;;;11.50;99.90;;;;;;5077154;28;20195;-77
2021/05/22 12:52:24;;;;;;;4.30;4.10;;;11.70;99.90;;;;;;5084808;28;20658;-78
2021/05/22 12:54:53;;;;;;;3.93;3.63;;;11.70;99.90;;;;;;5079502;28;20245;-76
2021/05/22 12:57:21;;;;;;;3.87;3.67;;;11.70;99.90;;;;;;5075680;28;20200;-78
2021/05/22 13:00:14;;;;;;;4.10;3.70;;;11.60;99.90;;;;;;5076426;28;20188;-78
2021/05/22 13:02:50;;;;;;;4.37;3.97;;;11.70;99.90;;;;;;5074876;28;20687;-79
2021/05/22 13:05:24;;;;;;;3.97;3.77;;;11.60;99.90;;;;;;5077121;28;20277;-78